Time;durP1;ratioP1;P1;durP2;ratioP2;P2;SDS_P1;SDS_P2;PMS_P1;PMS_P2;Temp;Humidity;BMP_temperature;BMP_pressure;BME280_temperature;BME280_humidity;BME280_pressure;Samples;Min_cycle;Max_cycle;Signal;HPM_P1;HPM_P2
2023/04/26 00:01:36;;;;;;;9.23;1.95;;;9.60;47.10;;;;;;5020645;28;20057;-50
2023/04/26 00:04:05;;;;;;;8.98;2.20;;;9.60;47.10;;;;;;5020530;28;20409;-47
2023/04/26 00:06:32;;;;;;;4.28;1.42;;;9.50;47.10;;;;;;5020073;28;20064;-46
2023/04/26 00:08:59;;;;;;;8.13;2.30;;;9.50;47.10;;;;;;5018999;28;20417;-48
2023/04/26 00:11:26;;;;;;;4.70;1.80;;;9.50;47.10;;;;;;5018732;28;21058;-45
2023/04/26 00:13:53;;;;;;;3.40;1.70;;;9.50;47.10;;;;;;5020767;28;20060;-46
2023/04/26 00:16:20;;;;;;;10.80;2.40;;;9.50;47.10;;;;;;5016811;28;20060;-45
2023/04/26 00:18:48;;;;;;;6.00;1.70;;;9.40;47.20;;;;;;5017390;28;20066;-46
2023/04/26 00:21:16;;;;;;;5.53;1.60;;;9.40;47.30;;;;;;5019728;28;20060;-46
2023/04/26 00:23:43;;;;;;;6.65;2.95;;;9.40;47.30;;;;;;5016619;28;20049;-46
2023/04/26 00:26:10;;;;;;;3.03;1.83;;;9.40;47.40;;;;;;5021248;28;20397;-46
2023/04/26 00:28:37;;;;;;;3.42;1.88;;;9.40;47.50;;;;;;5016176;28;20062;-47
2023/04/26 00:31:06;;;;;;;4.35;1.58;;;9.40;47.60;;;;;;5018642;28;20060;-46
2023/04/26 00:33:33;;;;;;;4.63;1.70;;;9.40;47.80;;;;;;5018025;28;20053;-45
2023/04/26 00:36:00;;;;;;;5.70;1.90;;;9.30;47.80;;;;;;5017395;28;20057;-45
2023/04/26 00:38:28;;;;;;;5.82;1.60;;;9.30;47.80;;;;;;5018381;28;20116;-46
2023/04/26 00:40:55;;;;;;;6.00;1.75;;;9.30;47.90;;;;;;5019058;28;20056;-44
2023/04/26 00:43:23;;;;;;;5.13;1.98;;;9.30;47.90;;;;;;5013838;28;20053;-45
2023/04/26 00:45:50;;;;;;;3.00;1.55;;;9.30;47.90;;;;;;5017833;28;20413;-45
2023/04/26 00:48:18;;;;;;;6.18;1.95;;;9.30;47.90;;;;;;5015003;28;20709;-44
2023/04/26 00:50:46;;;;;;;7.63;1.85;;;9.30;47.90;;;;;;5020036;28;20080;-46
2023/04/26 00:53:14;;;;;;;5.15;2.10;;;9.30;47.90;;;;;;5021878;28;20535;-46
2023/04/26 00:55:44;;;;;;;7.20;2.45;;;9.30;47.90;;;;;;5018605;28;20053;-45
2023/04/26 00:58:11;;;;;;;9.82;2.80;;;9.30;47.90;;;;;;5012396;28;20060;-44
2023/04/26 01:00:39;;;;;;;9.60;2.83;;;9.20;47.80;;;;;;5017347;28;20057;-45
2023/04/26 01:03:06;;;;;;;10.35;3.45;;;9.20;47.80;;;;;;5038359;23;20057;-45
2023/04/26 01:05:33;;;;;;;8.18;3.30;;;9.20;47.80;;;;;;4966103;28;20524;-47
2023/04/26 01:08:01;;;;;;;7.38;2.20;;;9.20;47.80;;;;;;4964452;28;20046;-44
2023/04/26 01:10:29;;;;;;;6.63;2.63;;;9.10;47.70;;;;;;4964345;28;20495;-50
2023/04/26 01:12:58;;;;;;;5.10;1.83;;;9.10;47.70;;;;;;4966296;28;20517;-47
2023/04/26 01:15:26;;;;;;;10.68;2.40;;;9.10;47.70;;;;;;4965381;28;20116;-43
2023/04/26 01:17:53;;;;;;;6.10;2.20;;;9.10;47.70;;;;;;4967202;28;20054;-45
2023/04/26 01:20:21;;;;;;;9.90;2.38;;;9.00;47.70;;;;;;4966116;28;20509;-43
2023/04/26 01:22:49;;;;;;;5.57;1.88;;;9.00;47.80;;;;;;4965898;28;20054;-48
2023/04/26 01:25:19;;;;;;;5.45;2.30;;;9.00;47.80;;;;;;4964862;28;20049;-46
2023/04/26 01:27:46;;;;;;;5.47;2.30;;;8.90;47.90;;;;;;4963521;28;20054;-48
2023/04/26 01:30:13;;;;;;;8.38;2.20;;;8.90;47.90;;;;;;4963862;28;20057;-45
2023/04/26 01:32:40;;;;;;;7.40;2.22;;;8.90;48.00;;;;;;4965792;28;20054;-46
2023/04/26 01:35:08;;;;;;;7.70;2.75;;;8.90;48.00;;;;;;4964045;28;20050;-42
2023/04/26 01:37:35;;;;;;;7.30;2.60;;;8.80;48.10;;;;;;4961768;28;20054;-44
2023/04/26 01:40:06;;;;;;;8.32;2.70;;;8.80;48.20;;;;;;4963788;28;20140;-44
2023/04/26 01:42:33;;;;;;;9.50;2.72;;;8.80;48.30;;;;;;4965461;28;20058;-45
2023/04/26 01:45:00;;;;;;;7.45;2.90;;;8.70;48.30;;;;;;4962303;28;20058;-44
2023/04/26 01:47:27;;;;;;;4.75;2.53;;;8.70;48.30;;;;;;4965648;28;20061;-47
2023/04/26 01:49:54;;;;;;;5.95;2.47;;;8.70;48.40;;;;;;4963632;28;20051;-44
2023/04/26 01:52:22;;;;;;;6.82;2.58;;;8.70;48.50;;;;;;4966286;28;20047;-46
2023/04/26 01:54:50;;;;;;;7.10;2.85;;;8.70;48.60;;;;;;4964164;28;20050;-47
2023/04/26 01:57:18;;;;;;;5.70;2.38;;;8.60;48.50;;;;;;4964886;28;20054;-44
2023/04/26 01:59:45;;;;;;;7.50;2.00;;;8.60;48.60;;;;;;4963882;28;20069;-44
2023/04/26 02:02:13;;;;;;;5.88;2.22;;;8.60;48.60;;;;;;4965244;28;20070;-42
2023/04/26 02:04:40;;;;;;;7.38;2.80;;;8.60;49.20;;;;;;4964926;28;20540;-46
2023/04/26 02:07:07;;;;;;;7.60;2.45;;;8.50;48.70;;;;;;4965539;28;20059;-46
2023/04/26 02:09:34;;;;;;;7.57;2.72;;;8.50;48.70;;;;;;4964806;28;20054;-47
2023/04/26 02:12:01;;;;;;;14.10;3.33;;;8.50;48.70;;;;;;4966449;28;20414;-46
2023/04/26 02:14:30;;;;;;;9.75;2.95;;;8.50;48.80;;;;;;4965813;28;20061;-47
2023/04/26 02:16:57;;;;;;;9.20;3.00;;;8.40;48.80;;;;;;4964478;28;20054;-45
2023/04/26 02:19:25;;;;;;;4.65;2.38;;;8.40;48.80;;;;;;4965523;28;20057;-47
2023/04/26 02:21:54;;;;;;;8.50;2.83;;;8.40;48.90;;;;;;4964790;28;20055;-48
2023/04/26 02:24:21;;;;;;;8.88;2.80;;;8.30;48.90;;;;;;4966113;28;20046;-44
2023/04/26 02:26:49;;;;;;;5.97;2.38;;;8.30;48.90;;;;;;4964632;28;20054;-48
2023/04/26 02:29:16;;;;;;;5.35;2.47;;;8.30;49.00;;;;;;4966004;28;20050;-47
2023/04/26 02:31:45;;;;;;;6.97;2.40;;;8.30;49.10;;;;;;4963637;28;20062;-47
2023/04/26 02:34:18;;;;;;;5.85;2.58;;;8.30;49.20;;;;;;4964683;28;20054;-43
2023/04/26 02:36:45;;;;;;;4.82;2.28;;;8.20;49.20;;;;;;4965146;28;20573;-48
2023/04/26 02:42:35;;;;;;;5.55;2.72;;;8.20;49.40;;;;;;4970918;28;20046;-43
2023/04/26 02:45:02;;;;;;;4.82;2.25;;;8.10;49.30;;;;;;4960845;28;20050;-42
2023/04/26 02:47:30;;;;;;;7.97;2.92;;;8.10;49.60;;;;;;4965733;28;20050;-46
2023/04/26 02:49:57;;;;;;;7.68;2.47;;;8.10;49.50;;;;;;4965877;28;20058;-44
2023/04/26 02:52:25;;;;;;;6.28;2.45;;;8.00;49.50;;;;;;4964609;28;20070;-43
2023/04/26 02:54:53;;;;;;;6.72;3.05;;;8.00;50.10;;;;;;4963956;28;20058;-43
2023/04/26 02:57:20;;;;;;;8.30;3.05;;;8.00;49.60;;;;;;4964911;28;20058;-46
2023/04/26 02:59:47;;;;;;;9.57;2.60;;;7.90;49.60;;;;;;4962849;28;20056;-44
2023/04/26 03:02:14;;;;;;;6.15;2.45;;;7.90;49.70;;;;;;4965510;28;20050;-44
2023/04/26 03:04:43;;;;;;;4.93;2.50;;;7.90;49.70;;;;;;4964455;28;20066;-47
2023/04/26 03:07:10;;;;;;;4.35;2.35;;;7.80;49.80;;;;;;4964290;28;20054;-44
2023/04/26 03:09:37;;;;;;;5.18;2.25;;;7.90;49.80;;;;;;4963805;28;20061;-43
2023/04/26 03:12:06;;;;;;;9.02;2.60;;;7.80;49.80;;;;;;4965883;28;20063;-50
2023/04/26 03:14:34;;;;;;;6.68;2.67;;;7.80;49.90;;;;;;4962780;28;20069;-48
2023/04/26 03:17:02;;;;;;;5.18;2.60;;;7.80;50.00;;;;;;4963238;28;20055;-47
2023/04/26 03:19:29;;;;;;;6.35;2.58;;;7.80;50.10;;;;;;4964194;28;20057;-42
2023/04/26 03:21:57;;;;;;;8.25;2.60;;;7.70;50.00;;;;;;4963531;28;20058;-47
2023/04/26 03:24:24;;;;;;;6.35;3.00;;;7.70;50.00;;;;;;4962299;28;20449;-45
2023/04/26 03:26:52;;;;;;;9.35;2.97;;;7.70;50.00;;;;;;4963213;28;20952;-47
2023/04/26 03:29:19;;;;;;;8.45;3.00;;;7.70;50.10;;;;;;4964290;28;20525;-44
2023/04/26 03:31:46;;;;;;;7.80;3.40;;;7.70;50.10;;;;;;4962074;28;20046;-43
2023/04/26 03:34:13;;;;;;;6.93;2.78;;;7.60;50.10;;;;;;4963906;28;20065;-45
2023/04/26 03:36:40;;;;;;;5.72;2.95;;;7.60;50.10;;;;;;4965747;28;20050;-45
2023/04/26 03:39:10;;;;;;;8.65;3.20;;;7.60;50.20;;;;;;4964072;28;20046;-44
2023/04/26 03:41:39;;;;;;;4.55;2.92;;;7.60;50.70;;;;;;4964967;28;20498;-44
2023/04/26 03:44:06;;;;;;;6.05;3.30;;;7.50;50.20;;;;;;4967897;28;20058;-47
2023/04/26 03:46:33;;;;;;;6.80;3.00;;;7.60;50.30;;;;;;4966370;28;20515;-48
2023/04/26 03:49:00;;;;;;;6.40;2.85;;;7.50;50.30;;;;;;4968734;28;20046;-49
2023/04/26 03:51:27;;;;;;;6.90;2.85;;;7.50;50.30;;;;;;4967456;28;20066;-45
2023/04/26 03:53:55;;;;;;;6.38;2.88;;;7.50;50.30;;;;;;4968553;28;20066;-45
2023/04/26 03:56:24;;;;;;;7.35;3.40;;;7.50;50.40;;;;;;4966141;28;20054;-47
2023/04/26 03:58:51;;;;;;;4.72;2.65;;;7.50;50.40;;;;;;4966204;28;20396;-43
2023/04/26 04:01:19;;;;;;;5.55;3.05;;;7.40;50.40;;;;;;4966939;28;20051;-43
2023/04/26 04:03:46;;;;;;;7.75;3.47;;;7.40;50.40;;;;;;4967268;28;20059;-47
2023/04/26 04:06:13;;;;;;;7.45;3.45;;;7.40;50.50;;;;;;4967424;28;21149;-44
2023/04/26 04:08:40;;;;;;;8.02;3.45;;;7.40;50.60;;;;;;4966824;28;20057;-47
2023/04/26 04:11:07;;;;;;;7.47;3.38;;;7.40;50.70;;;;;;4967406;28;20054;-44
2023/04/26 04:13:36;;;;;;;10.60;4.22;;;7.30;50.70;;;;;;4965137;28;20062;-43
2023/04/26 04:16:03;;;;;;;11.95;3.95;;;7.40;50.90;;;;;;4964589;28;20054;-44
2023/04/26 04:18:30;;;;;;;7.53;2.97;;;7.40;51.00;;;;;;4965821;28;20490;-46
2023/04/26 04:20:58;;;;;;;10.18;4.05;;;7.40;51.10;;;;;;4965392;28;20054;-44
2023/04/26 04:23:26;;;;;;;9.43;4.28;;;7.40;51.10;;;;;;4966544;28;20050;-44
2023/04/26 04:25:53;;;;;;;6.72;3.30;;;7.30;51.10;;;;;;4964280;28;20337;-45
2023/04/26 04:28:21;;;;;;;9.68;3.97;;;7.30;51.20;;;;;;4967052;28;20526;-47
2023/04/26 04:30:49;;;;;;;8.32;3.55;;;7.30;51.30;;;;;;4965204;28;20058;-45
2023/04/26 04:33:31;;;;;;;9.05;4.43;;;7.30;51.20;;;;;;4966719;28;20055;-49
2023/04/26 04:36:01;;;;;;;10.05;3.92;;;7.30;51.30;;;;;;4965563;28;20050;-46
2023/04/26 04:38:39;;;;;;;11.18;3.80;;;7.30;51.20;;;;;;4967076;28;20065;-45
2023/04/26 04:41:10;;;;;;;6.72;3.53;;;7.30;51.20;;;;;;4961266;28;20055;-43
2023/04/26 04:43:40;;;;;;;10.98;4.15;;;7.30;51.30;;;;;;4950239;28;20050;-42
2023/04/26 04:46:12;;;;;;;10.25;5.03;;;7.30;51.20;;;;;;4962091;28;20105;-44
2023/04/26 04:48:40;;;;;;;9.45;4.63;;;7.30;51.30;;;;;;4964293;28;20077;-42
2023/04/26 04:51:08;;;;;;;10.25;4.28;;;7.30;51.30;;;;;;4966710;28;20057;-43
2023/04/26 04:53:35;;;;;;;21.50;8.00;;;7.30;51.40;;;;;;4965879;28;20062;-46
2023/04/26 04:56:02;;;;;;;32.10;12.57;;;7.30;51.40;;;;;;4965917;28;20060;-46
2023/04/26 04:58:29;;;;;;;17.92;7.63;;;7.30;51.40;;;;;;4964887;28;20055;-47
2023/04/26 05:00:59;;;;;;;14.18;4.80;;;7.30;52.00;;;;;;4965248;28;20051;-45
2023/04/26 05:03:28;;;;;;;12.32;4.43;;;7.30;51.70;;;;;;4965933;28;20047;-48
2023/04/26 05:05:56;;;;;;;8.85;4.05;;;7.30;51.80;;;;;;4965514;28;20131;-45
2023/04/26 05:08:23;;;;;;;6.07;3.60;;;7.30;51.80;;;;;;4966187;28;20399;-45
2023/04/26 05:10:50;;;;;;;10.27;4.03;;;7.30;51.80;;;;;;4965702;28;20051;-46
2023/04/26 05:13:17;;;;;;;8.93;3.67;;;7.30;51.80;;;;;;4966169;28;20054;-44
2023/04/26 05:15:44;;;;;;;8.90;3.95;;;7.30;51.80;;;;;;4964242;28;20062;-42
2023/04/26 05:18:12;;;;;;;11.27;4.60;;;7.30;51.80;;;;;;4964071;28;20067;-43
2023/04/26 05:20:40;;;;;;;12.38;4.55;;;7.30;51.90;;;;;;4966720;28;20062;-46
2023/04/26 05:23:09;;;;;;;9.40;4.75;;;7.40;52.00;;;;;;4964503;28;20122;-43
2023/04/26 05:25:37;;;;;;;12.88;4.78;;;7.40;52.00;;;;;;4964800;28;20047;-43
2023/04/26 05:28:06;;;;;;;13.13;3.90;;;7.40;52.50;;;;;;4965275;28;20502;-46
2023/04/26 05:30:34;;;;;;;11.20;4.40;;;7.40;52.00;;;;;;4962521;28;20055;-49
2023/04/26 05:33:01;;;;;;;8.90;4.90;;;7.40;52.10;;;;;;4963740;28;20065;-48
2023/04/26 05:35:28;;;;;;;14.23;4.90;;;7.40;52.10;;;;;;4965737;28;20521;-44
2023/04/26 05:37:57;;;;;;;9.80;5.00;;;7.50;52.20;;;;;;4964538;28;20054;-44
2023/04/26 05:40:25;;;;;;;11.48;5.70;;;7.50;52.30;;;;;;4963372;28;20047;-49
2023/04/26 05:42:52;;;;;;;14.55;5.38;;;7.50;52.30;;;;;;4965730;28;20542;-44
2023/04/26 05:45:20;;;;;;;11.77;4.07;;;7.50;52.40;;;;;;4964350;28;20047;-44
2023/04/26 05:47:47;;;;;;;13.60;5.18;;;7.60;52.60;;;;;;4964718;28;20058;-45
2023/04/26 05:50:15;;;;;;;13.98;5.63;;;7.60;52.80;;;;;;4964430;28;20054;-43
2023/04/26 05:52:42;;;;;;;19.15;7.45;;;7.70;52.90;;;;;;4965585;28;20050;-47
2023/04/26 05:55:12;;;;;;;15.48;6.85;;;7.70;53.10;;;;;;4964639;28;20417;-44
2023/04/26 05:57:39;;;;;;;16.25;6.68;;;7.70;53.20;;;;;;4965868;28;20061;-48
2023/04/26 06:00:09;;;;;;;20.02;6.35;;;7.70;53.70;;;;;;4964172;28;20061;-45
2023/04/26 06:02:36;;;;;;;8.25;4.78;;;7.70;53.20;;;;;;4963788;28;20065;-46
2023/04/26 06:05:05;;;;;;;10.32;5.50;;;7.80;53.20;;;;;;4964282;28;20415;-45
2023/04/26 06:07:32;;;;;;;9.18;4.93;;;7.80;53.40;;;;;;4964851;28;20423;-46
2023/04/26 06:10:01;;;;;;;15.02;5.50;;;7.80;53.50;;;;;;4966203;28;20054;-43
2023/04/26 06:12:30;;;;;;;14.80;5.18;;;7.80;53.70;;;;;;4964335;28;20053;-47
2023/04/26 06:14:57;;;;;;;10.25;5.05;;;7.90;53.80;;;;;;4961853;28;20065;-45
2023/04/26 06:17:25;;;;;;;20.00;7.10;;;8.00;53.70;;;;;;4965735;28;20426;-49
2023/04/26 06:19:52;;;;;;;18.73;7.72;;;8.10;53.90;;;;;;4966193;28;20055;-46
2023/04/26 06:25:43;;;;;;;24.67;8.15;;;8.10;53.90;;;;;;4970137;28;20034;-45
2023/04/26 06:28:12;;;;;;;18.23;9.10;;;8.20;53.50;;;;;;4966904;28;20058;-43
2023/04/26 06:30:40;;;;;;;22.85;10.07;;;8.20;53.50;;;;;;4961059;28;20050;-46
2023/04/26 06:33:07;;;;;;;23.48;10.15;;;8.20;53.50;;;;;;4965111;28;20070;-46
2023/04/26 06:35:39;;;;;;;25.73;10.20;;;8.20;53.40;;;;;;4965229;28;20067;-43
2023/04/26 06:38:07;;;;;;;17.92;10.30;;;8.20;53.50;;;;;;4962819;28;20513;-45
2023/04/26 06:40:35;;;;;;;31.00;10.95;;;8.20;53.40;;;;;;4962645;28;20801;-43
2023/04/26 06:43:03;;;;;;;25.42;9.95;;;8.20;53.50;;;;;;4964685;28;20055;-43
2023/04/26 06:45:31;;;;;;;24.00;11.38;;;8.20;53.50;;;;;;4963997;28;20058;-43
2023/04/26 06:48:00;;;;;;;30.50;11.60;;;8.30;53.60;;;;;;4962891;28;20417;-48
2023/04/26 06:50:27;;;;;;;33.08;12.60;;;8.30;53.70;;;;;;4963384;28;20509;-46
2023/04/26 06:52:55;;;;;;;33.78;13.23;;;8.30;53.50;;;;;;4962747;28;20096;-42
2023/04/26 06:55:22;;;;;;;37.28;14.80;;;8.40;53.50;;;;;;4961648;28;20050;-45
2023/04/26 06:57:50;;;;;;;37.35;14.43;;;8.50;53.50;;;;;;4964684;28;20611;-46
2023/04/26 07:00:18;;;;;;;36.00;13.82;;;8.50;53.40;;;;;;4964861;28;20054;-43
2023/04/26 07:02:46;;;;;;;39.55;15.35;;;8.60;53.10;;;;;;4965168;28;20058;-46
2023/04/26 07:05:14;;;;;;;50.03;17.83;;;8.60;53.00;;;;;;4963612;28;20078;-44
2023/04/26 07:07:41;;;;;;;43.38;18.42;;;8.70;53.10;;;;;;4963969;28;20395;-42
2023/04/26 07:10:09;;;;;;;36.05;15.60;;;8.70;52.80;;;;;;4965019;28;20047;-44
2023/04/26 07:12:36;;;;;;;38.55;17.73;;;8.70;52.90;;;;;;4963483;28;20525;-46
2023/04/26 07:15:05;;;;;;;39.97;16.55;;;8.70;52.90;;;;;;4963913;28;20055;-46
2023/04/26 07:23:39;;;;;;;37.00;17.02;;;9.00;53.00;;;;;;4918751;28;20065;-46
2023/04/26 07:26:06;;;;;;;39.83;17.05;;;9.10;52.80;;;;;;4968092;28;20054;-46
2023/04/26 07:28:33;;;;;;;32.38;15.68;;;9.10;52.60;;;;;;4967124;28;20934;-45
2023/04/26 07:31:01;;;;;;;43.83;17.08;;;9.20;52.70;;;;;;4963697;28;20490;-44
2023/04/26 07:33:28;;;;;;;51.85;18.05;;;9.20;52.50;;;;;;4968318;28;20057;-45
2023/04/26 07:35:56;;;;;;;32.85;15.77;;;9.20;52.40;;;;;;4967851;28;20631;-45
2023/04/26 07:38:24;;;;;;;34.20;15.63;;;9.20;52.40;;;;;;4967776;28;20081;-44
2023/04/26 07:40:52;;;;;;;40.20;16.90;;;9.30;52.50;;;;;;4966354;28;20074;-43
2023/04/26 07:43:21;;;;;;;34.97;14.05;;;9.30;52.40;;;;;;4966551;28;20058;-44
2023/04/26 07:45:48;;;;;;;32.42;14.48;;;9.40;52.20;;;;;;4965645;28;20062;-42
2023/04/26 07:48:15;;;;;;;32.50;14.48;;;9.50;52.20;;;;;;4966806;28;20054;-45
2023/04/26 07:50:42;;;;;;;34.70;14.93;;;9.50;52.30;;;;;;4966611;28;20058;-44
2023/04/26 07:53:09;;;;;;;37.45;14.77;;;9.60;52.40;;;;;;4966902;28;20066;-46
2023/04/26 07:55:36;;;;;;;33.42;12.52;;;9.60;51.40;;;;;;4965307;28;20069;-48
2023/04/26 07:58:05;;;;;;;23.90;11.35;;;9.60;51.20;;;;;;4964583;28;20065;-43
2023/04/26 08:00:37;;;;;;;27.95;12.70;;;9.60;51.50;;;;;;4965879;28;20054;-43
2023/04/26 08:03:04;;;;;;;31.50;12.15;;;9.60;51.80;;;;;;4967522;28;20058;-44
2023/04/26 08:05:31;;;;;;;32.75;12.52;;;9.70;52.00;;;;;;4966712;28;20071;-48
2023/04/26 08:08:00;;;;;;;35.38;12.57;;;9.70;51.70;;;;;;4966565;28;20051;-46
2023/04/26 08:10:27;;;;;;;27.45;11.20;;;9.70;51.70;;;;;;4966359;28;20061;-47
2023/04/26 08:12:56;;;;;;;31.95;11.90;;;9.80;51.20;;;;;;4965667;28;20058;-46
2023/04/26 08:15:24;;;;;;;21.77;10.05;;;9.80;51.10;;;;;;4966460;28;20050;-44
2023/04/26 08:17:52;;;;;;;30.17;10.13;;;9.80;51.10;;;;;;4966499;28;20434;-46
2023/04/26 08:20:19;;;;;;;26.50;10.48;;;9.70;51.30;;;;;;4966395;28;20058;-47
2023/04/26 08:22:46;;;;;;;28.27;10.05;;;9.70;51.30;;;;;;4967572;28;20283;-44
2023/04/26 08:25:14;;;;;;;19.92;7.70;;;9.70;50.70;;;;;;4966791;28;20058;-46
2023/04/26 08:27:43;;;;;;;30.65;8.30;;;9.60;50.70;;;;;;4965724;28;20497;-45
2023/04/26 08:30:11;;;;;;;24.08;7.93;;;9.60;50.80;;;;;;4966887;28;20079;-44
2023/04/26 08:32:40;;;;;;;24.13;8.63;;;9.60;50.90;;;;;;4967670;28;20054;-43
2023/04/26 08:35:08;;;;;;;18.15;6.80;;;9.70;51.00;;;;;;4965183;28;20081;-45
2023/04/26 08:37:36;;;;;;;22.55;8.25;;;9.70;51.20;;;;;;4966102;28;20430;-44
2023/04/26 08:40:07;;;;;;;34.85;10.73;;;9.80;51.00;;;;;;4965128;28;20503;-46
2023/04/26 08:42:39;;;;;;;18.75;7.53;;;9.80;50.70;;;;;;4966288;28;20442;-49
2023/04/26 08:45:10;;;;;;;28.15;7.90;;;9.90;50.70;;;;;;4966000;28;20062;-44
2023/04/26 08:47:44;;;;;;;22.60;7.50;;;9.90;50.00;;;;;;4966360;28;20065;-46
2023/04/26 08:50:13;;;;;;;16.92;6.50;;;10.00;49.50;;;;;;4964550;28;20051;-45
2023/04/26 08:52:41;;;;;;;14.63;6.10;;;10.00;49.20;;;;;;4965142;28;20050;-44
2023/04/26 08:55:11;;;;;;;13.05;5.13;;;10.10;49.80;;;;;;4963841;28;20066;-47
2023/04/26 08:57:40;;;;;;;23.23;8.80;;;10.10;49.30;;;;;;4966584;28;20070;-44
2023/04/26 09:00:11;;;;;;;20.48;6.93;;;10.20;49.20;;;;;;4963048;28;20434;-49
2023/04/26 09:02:42;;;;;;;22.92;7.65;;;10.30;48.50;;;;;;4966620;28;20413;-47
2023/04/26 09:05:11;;;;;;;15.40;6.82;;;10.30;49.00;;;;;;4966416;28;20062;-47
2023/04/26 09:07:42;;;;;;;11.55;5.20;;;10.40;48.30;;;;;;4965943;28;20054;-46
2023/04/26 09:10:11;;;;;;;13.27;6.43;;;10.40;47.70;;;;;;4964621;28;20427;-43
2023/04/26 09:12:39;;;;;;;14.52;6.75;;;10.50;47.90;;;;;;4962784;28;20051;-47
2023/04/26 09:15:07;;;;;;;13.60;5.78;;;10.50;48.00;;;;;;4961417;28;20053;-46
2023/04/26 09:17:36;;;;;;;8.18;4.55;;;10.60;48.00;;;;;;4965731;28;20434;-44
2023/04/26 09:20:21;;;;;;;17.25;5.72;;;10.70;48.00;;;;;;4962649;28;20057;-44
2023/04/26 09:22:49;;;;;;;7.97;3.63;;;10.70;47.70;;;;;;4966358;28;20081;-43
2023/04/26 09:25:18;;;;;;;13.85;4.53;;;10.90;47.80;;;;;;4966918;28;20050;-44
2023/04/26 09:27:46;;;;;;;15.30;6.47;;;11.00;47.40;;;;;;4966204;28;20493;-43
2023/04/26 09:30:16;;;;;;;18.23;6.00;;;11.00;47.00;;;;;;4962236;28;20058;-45
2023/04/26 09:32:46;;;;;;;14.35;5.85;;;11.10;46.20;;;;;;4963960;28;20062;-44
2023/04/26 09:35:32;;;;;;;12.77;5.68;;;11.10;45.40;;;;;;4964296;28;20491;-45
2023/04/26 09:38:02;;;;;;;10.77;5.55;;;11.20;45.60;;;;;;4964105;28;20046;-45
2023/04/26 09:40:31;;;;;;;10.68;3.42;;;11.20;45.60;;;;;;4964277;28;20384;-47
2023/04/26 09:42:59;;;;;;;15.18;5.07;;;11.10;43.10;;;;;;4964532;28;20055;-44
2023/04/26 09:45:28;;;;;;;15.57;4.40;;;11.10;42.70;;;;;;4963549;28;20058;-48
2023/04/26 09:47:56;;;;;;;17.67;4.90;;;11.10;43.90;;;;;;4964618;28;20058;-47
2023/04/26 09:50:30;;;;;;;16.75;5.78;;;11.10;44.00;;;;;;4965781;28;20166;-46
2023/04/26 09:52:57;;;;;;;;;;;11.10;44.40;;;;;;4965771;28;20061;-44
2023/04/26 09:55:29;;;;;;;10.18;5.03;;;11.10;45.50;;;;;;4965451;28;20290;-44
2023/04/26 09:57:59;;;;;;;14.93;4.07;;;11.10;45.00;;;;;;4963880;28;20050;-43
2023/04/26 10:00:27;;;;;;;14.07;5.20;;;11.10;45.00;;;;;;4962247;28;20050;-44
2023/04/26 10:02:55;;;;;;;15.10;5.18;;;11.10;44.60;;;;;;4963968;28;20042;-45
2023/04/26 10:05:23;;;;;;;11.35;4.25;;;11.20;44.80;;;;;;4967278;28;20066;-45
2023/04/26 10:07:55;;;;;;;13.63;4.30;;;11.20;45.40;;;;;;4961864;28;20507;-43
2023/04/26 10:10:23;;;;;;;13.48;5.03;;;11.30;45.10;;;;;;4964357;28;20062;-47
2023/04/26 10:12:51;;;;;;;12.75;4.38;;;11.30;43.50;;;;;;4964720;28;20054;-45
2023/04/26 10:15:19;;;;;;;14.18;4.45;;;11.30;43.10;;;;;;4962973;28;20066;-45
2023/04/26 10:17:47;;;;;;;15.68;5.13;;;11.30;42.90;;;;;;4965432;28;20050;-46
2023/04/26 10:20:16;;;;;;;12.93;4.97;;;11.30;43.00;;;;;;4964597;28;20046;-45
2023/04/26 10:22:51;;;;;;;12.05;4.70;;;11.30;42.90;;;;;;4963583;28;20498;-43
2023/04/26 10:25:21;;;;;;;14.48;4.57;;;11.30;43.20;;;;;;4963135;28;20540;-43
2023/04/26 10:27:52;;;;;;;10.85;4.43;;;11.30;43.30;;;;;;4962175;28;20854;-47
2023/04/26 10:30:23;;;;;;;13.38;5.10;;;11.30;44.20;;;;;;4962281;28;20058;-46
2023/04/26 10:33:17;;;;;;;16.95;4.60;;;11.30;44.50;;;;;;4963913;28;20554;-50
2023/04/26 10:36:00;;;;;;;;;;;11.30;42.60;;;;;;4964554;28;20054;-49
2023/04/26 10:38:27;;;;;;;14.43;4.75;;;11.30;43.20;;;;;;4961775;28;20294;-48
2023/04/26 10:41:16;;;;;;;14.88;3.50;;;11.30;43.40;;;;;;4963969;28;20054;-46
2023/04/26 10:43:43;;;;;;;7.50;3.83;;;11.30;43.10;;;;;;4961660;28;20065;-48
2023/04/26 10:46:35;;;;;;;15.80;4.55;;;11.40;43.10;;;;;;4962820;28;20059;-45
2023/04/26 10:49:16;;;;;;;12.55;3.72;;;11.40;42.60;;;;;;4963590;28;20064;-43
2023/04/26 10:52:14;;;;;;;6.82;3.30;;;11.50;41.80;;;;;;4964543;28;20050;-45
2023/04/26 10:54:49;;;;;;;9.98;4.03;;;11.50;42.30;;;;;;4930480;28;20054;-45
2023/04/26 10:57:18;;;;;;;16.10;3.53;;;11.50;42.00;;;;;;4968461;28;20065;-45
2023/04/26 11:00:16;;;;;;;9.57;3.85;;;11.50;41.40;;;;;;4967811;28;20046;-47
2023/04/26 11:03:03;;;;;;;12.80;3.35;;;11.60;42.50;;;;;;4968099;28;20073;-47
2023/04/26 11:05:38;;;;;;;11.25;3.90;;;11.70;43.00;;;;;;4968866;28;20050;-47
2023/04/26 11:08:08;;;;;;;9.48;3.40;;;11.70;41.80;;;;;;4967469;28;20059;-46
2023/04/26 11:10:37;;;;;;;12.98;3.70;;;11.80;42.00;;;;;;4967432;28;20537;-46
2023/04/26 11:13:06;;;;;;;8.93;2.92;;;11.90;42.20;;;;;;4967117;28;20054;-43
2023/04/26 11:15:34;;;;;;;11.02;3.30;;;11.90;42.90;;;;;;4964918;28;20507;-47
2023/04/26 11:18:03;;;;;;;7.38;3.30;;;12.00;42.20;;;;;;4967958;28;20062;-45
2023/04/26 11:20:31;;;;;;;12.15;3.70;;;12.10;42.30;;;;;;4967483;28;20421;-47
2023/04/26 11:22:59;;;;;;;10.48;3.55;;;12.10;42.30;;;;;;4967414;28;20062;-45
2023/04/26 11:25:27;;;;;;;13.32;4.47;;;12.20;41.10;;;;;;4968275;28;20061;-43
2023/04/26 11:28:01;;;;;;;8.68;3.80;;;12.20;39.90;;;;;;4968053;28;20545;-46
2023/04/26 11:30:31;;;;;;;10.18;3.97;;;12.30;41.80;;;;;;4964459;28;20411;-43
2023/04/26 11:32:59;;;;;;;7.78;3.03;;;12.40;42.10;;;;;;4968307;28;20059;-46
2023/04/26 11:35:28;;;;;;;7.20;3.38;;;12.40;41.90;;;;;;4967973;28;20513;-47
2023/04/26 11:37:59;;;;;;;8.45;3.05;;;12.40;41.90;;;;;;4968522;28;20051;-49
2023/04/26 11:40:31;;;;;;;6.22;2.65;;;12.50;41.50;;;;;;4967209;28;20050;-46
2023/04/26 11:43:02;;;;;;;8.13;3.00;;;12.60;41.50;;;;;;4967270;28;20054;-45
2023/04/26 11:45:32;;;;;;;7.18;3.15;;;12.70;41.50;;;;;;4964940;28;20054;-42
2023/04/26 11:48:00;;;;;;;10.35;3.03;;;12.70;40.70;;;;;;4966798;28;20490;-45
2023/04/26 11:50:27;;;;;;;10.80;3.08;;;12.80;39.50;;;;;;4969511;28;20050;-43
2023/04/26 11:52:56;;;;;;;8.75;3.00;;;12.80;40.20;;;;;;4967115;28;20047;-44
2023/04/26 11:55:27;;;;;;;9.32;3.40;;;12.80;39.60;;;;;;4969023;28;20383;-47
2023/04/26 11:57:54;;;;;;;13.15;3.10;;;12.80;37.60;;;;;;4966966;28;20055;-46
2023/04/26 12:00:23;;;;;;;10.40;3.10;;;12.80;38.90;;;;;;4966243;28;20062;-48
2023/04/26 12:02:52;;;;;;;7.80;2.60;;;12.80;38.70;;;;;;4961888;28;20059;-44
2023/04/26 12:05:24;;;;;;;9.45;2.80;;;12.80;39.80;;;;;;4968352;28;20068;-45
2023/04/26 12:07:54;;;;;;;12.32;2.90;;;12.80;40.10;;;;;;4967518;28;20054;-42
2023/04/26 12:10:24;;;;;;;12.82;3.58;;;12.90;40.30;;;;;;4966398;28;20058;-48
2023/04/26 12:12:53;;;;;;;6.03;2.70;;;12.90;39.00;;;;;;4967803;28;20059;-42
2023/04/26 12:15:24;;;;;;;5.88;2.45;;;12.90;39.40;;;;;;4965359;28;20054;-41
2023/04/26 12:17:56;;;;;;;7.85;2.35;;;13.00;39.10;;;;;;4966645;28;20055;-38
2023/04/26 12:20:34;;;;;;;6.32;2.70;;;13.00;39.60;;;;;;4966941;28;20521;-42
2023/04/26 12:23:03;;;;;;;11.80;3.08;;;13.00;39.60;;;;;;4969083;28;20411;-41
2023/04/26 12:25:32;;;;;;;11.70;2.80;;;13.00;38.30;;;;;;4966308;28;20066;-44
2023/04/26 12:28:00;;;;;;;8.77;2.70;;;13.00;39.30;;;;;;4966535;28;20054;-42
2023/04/26 12:30:28;;;;;;;10.32;2.47;;;13.00;40.00;;;;;;4965155;28;20066;-41
2023/04/26 12:32:57;;;;;;;7.95;2.63;;;13.00;39.90;;;;;;4967585;28;20494;-39
2023/04/26 12:35:25;;;;;;;8.60;3.20;;;13.10;40.20;;;;;;4966570;28;20051;-45
2023/04/26 12:37:52;;;;;;;22.27;3.80;;;13.10;38.80;;;;;;4964542;28;20058;-45
2023/04/26 12:40:20;;;;;;;8.80;2.55;;;13.20;38.80;;;;;;4966394;28;20429;-46
2023/04/26 12:42:48;;;;;;;10.10;2.60;;;13.20;38.70;;;;;;4965840;28;20055;-45
2023/04/26 12:45:17;;;;;;;9.48;2.70;;;13.10;38.50;;;;;;4964548;28;20050;-43
2023/04/26 12:47:44;;;;;;;7.63;2.60;;;13.10;37.80;;;;;;4967023;28;20055;-42
2023/04/26 12:50:14;;;;;;;8.82;2.45;;;13.10;38.00;;;;;;4966481;28;20066;-43
2023/04/26 12:52:42;;;;;;;7.93;2.50;;;13.10;37.60;;;;;;4966347;28;20051;-40
2023/04/26 12:55:10;;;;;;;7.32;2.50;;;13.10;37.10;;;;;;4966305;28;20058;-43
2023/04/26 12:57:39;;;;;;;9.05;2.50;;;13.10;37.20;;;;;;4966543;28;20407;-46
2023/04/26 13:00:08;;;;;;;9.73;2.55;;;13.10;37.40;;;;;;4965019;28;20065;-41
2023/04/26 13:02:36;;;;;;;10.15;2.72;;;13.10;38.90;;;;;;4963140;28;20058;-39
2023/04/26 13:05:05;;;;;;;6.40;2.60;;;13.10;39.20;;;;;;4965995;28;20055;-39
2023/04/26 13:07:34;;;;;;;11.55;2.33;;;13.20;39.30;;;;;;4966034;28;20066;-41
2023/04/26 13:10:03;;;;;;;5.63;2.28;;;13.20;38.50;;;;;;4966709;28;20058;-43